sensor_id;sensor_type;location;lat;lon;timestamp;P1;durP1;ratioP1;P2;durP2;ratioP2
4365;SDS011;2196;47.422;9.656;2024-03-02T00:02:12;14.43;;;11.40;;
4365;SDS011;2196;47.422;9.656;2024-03-02T00:04:39;13.00;;;11.60;;
4365;SDS011;2196;47.422;9.656;2024-03-02T00:07:07;14.83;;;12.47;;
4365;SDS011;2196;47.422;9.656;2024-03-02T00:09:34;14.33;;;11.17;;
4365;SDS011;2196;47.422;9.656;2024-03-02T00:12:01;18.57;;;12.57;;
4365;SDS011;2196;47.422;9.656;2024-03-02T00:14:29;14.17;;;12.13;;
4365;SDS011;2196;47.422;9.656;2024-03-02T00:16:58;15.87;;;11.67;;
4365;SDS011;2196;47.422;9.656;2024-03-02T00:19:26;13.50;;;11.33;;
4365;SDS011;2196;47.422;9.656;2024-03-02T00:21:53;13.87;;;10.93;;
4365;SDS011;2196;47.422;9.656;2024-03-02T00:24:20;16.23;;;11.77;;
4365;SDS011;2196;47.422;9.656;2024-03-02T00:26:50;12.93;;;11.17;;
4365;SDS011;2196;47.422;9.656;2024-03-02T00:29:17;14.87;;;12.03;;
4365;SDS011;2196;47.422;9.656;2024-03-02T00:31:46;15.90;;;11.07;;
4365;SDS011;2196;47.422;9.656;2024-03-02T00:34:15;14.17;;;11.33;;
4365;SDS011;2196;47.422;9.656;2024-03-02T00:36:44;18.17;;;12.37;;
4365;SDS011;2196;47.422;9.656;2024-03-02T00:39:12;16.23;;;11.53;;
4365;SDS011;2196;47.422;9.656;2024-03-02T00:41:40;14.93;;;11.73;;
4365;SDS011;2196;47.422;9.656;2024-03-02T00:44:09;12.10;;;10.27;;
4365;SDS011;2196;47.422;9.656;2024-03-02T00:46:37;12.43;;;9.63;;
4365;SDS011;2196;47.422;9.656;2024-03-02T00:49:05;11.53;;;9.43;;
4365;SDS011;2196;47.422;9.656;2024-03-02T00:51:34;15.60;;;10.27;;
4365;SDS011;2196;47.422;9.656;2024-03-02T00:54:02;11.73;;;9.27;;
4365;SDS011;2196;47.422;9.656;2024-03-02T00:56:30;13.83;;;8.93;;
4365;SDS011;2196;47.422;9.656;2024-03-02T00:58:58;16.63;;;9.83;;
4365;SDS011;2196;47.422;9.656;2024-03-02T01:01:25;10.27;;;9.00;;
4365;SDS011;2196;47.422;9.656;2024-03-02T01:03:53;14.83;;;10.03;;
4365;SDS011;2196;47.422;9.656;2024-03-02T01:06:20;10.20;;;8.03;;
4365;SDS011;2196;47.422;9.656;2024-03-02T01:08:49;10.83;;;8.90;;
4365;SDS011;2196;47.422;9.656;2024-03-02T01:11:17;11.03;;;8.53;;
4365;SDS011;2196;47.422;9.656;2024-03-02T01:13:45;14.03;;;9.00;;
4365;SDS011;2196;47.422;9.656;2024-03-02T01:16:12;9.83;;;8.77;;
4365;SDS011;2196;47.422;9.656;2024-03-02T01:18:40;15.40;;;9.53;;
4365;SDS011;2196;47.422;9.656;2024-03-02T01:21:07;12.10;;;9.77;;
4365;SDS011;2196;47.422;9.656;2024-03-02T01:23:34;10.03;;;9.03;;
4365;SDS011;2196;47.422;9.656;2024-03-02T01:26:03;9.33;;;8.37;;
4365;SDS011;2196;47.422;9.656;2024-03-02T01:28:30;11.33;;;9.33;;
4365;SDS011;2196;47.422;9.656;2024-03-02T01:30:57;11.23;;;8.97;;
4365;SDS011;2196;47.422;9.656;2024-03-02T01:33:25;9.43;;;8.53;;
4365;SDS011;2196;47.422;9.656;2024-03-02T01:35:52;12.00;;;8.47;;
4365;SDS011;2196;47.422;9.656;2024-03-02T01:38:19;9.97;;;8.50;;
4365;SDS011;2196;47.422;9.656;2024-03-02T01:40:46;9.77;;;7.77;;
4365;SDS011;2196;47.422;9.656;2024-03-02T01:43:15;13.07;;;9.43;;
4365;SDS011;2196;47.422;9.656;2024-03-02T01:45:42;12.30;;;9.37;;
4365;SDS011;2196;47.422;9.656;2024-03-02T01:48:09;10.23;;;7.93;;
4365;SDS011;2196;47.422;9.656;2024-03-02T01:50:36;9.97;;;8.93;;
4365;SDS011;2196;47.422;9.656;2024-03-02T01:53:03;12.90;;;10.80;;
4365;SDS011;2196;47.422;9.656;2024-03-02T01:55:30;12.63;;;10.63;;
4365;SDS011;2196;47.422;9.656;2024-03-02T01:57:58;11.60;;;9.50;;
4365;SDS011;2196;47.422;9.656;2024-03-02T02:00:26;11.70;;;9.73;;
4365;SDS011;2196;47.422;9.656;2024-03-02T02:02:54;13.07;;;11.33;;
4365;SDS011;2196;47.422;9.656;2024-03-02T02:05:21;14.33;;;11.17;;
4365;SDS011;2196;47.422;9.656;2024-03-02T02:07:48;13.40;;;10.93;;
4365;SDS011;2196;47.422;9.656;2024-03-02T02:10:15;14.40;;;11.70;;
4365;SDS011;2196;47.422;9.656;2024-03-02T02:12:42;15.23;;;11.67;;
4365;SDS011;2196;47.422;9.656;2024-03-02T02:15:27;13.23;;;11.43;;
4365;SDS011;2196;47.422;9.656;2024-03-02T02:17:54;14.83;;;13.27;;
4365;SDS011;2196;47.422;9.656;2024-03-02T02:20:21;12.27;;;10.90;;
4365;SDS011;2196;47.422;9.656;2024-03-02T02:22:55;15.50;;;11.80;;
4365;SDS011;2196;47.422;9.656;2024-03-02T02:25:22;13.50;;;10.67;;
4365;SDS011;2196;47.422;9.656;2024-03-02T02:27:49;13.73;;;11.07;;
4365;SDS011;2196;47.422;9.656;2024-03-02T02:30:18;13.57;;;10.57;;
4365;SDS011;2196;47.422;9.656;2024-03-02T02:32:46;12.73;;;10.57;;
4365;SDS011;2196;47.422;9.656;2024-03-02T02:35:13;12.20;;;10.50;;
4365;SDS011;2196;47.422;9.656;2024-03-02T02:37:40;13.90;;;10.20;;
4365;SDS011;2196;47.422;9.656;2024-03-02T02:40:10;11.70;;;10.50;;
4365;SDS011;2196;47.422;9.656;2024-03-02T02:42:40;12.87;;;11.07;;
4365;SDS011;2196;47.422;9.656;2024-03-02T02:45:08;13.27;;;9.60;;
4365;SDS011;2196;47.422;9.656;2024-03-02T02:47:36;13.87;;;10.23;;
4365;SDS011;2196;47.422;9.656;2024-03-02T02:50:07;12.50;;;10.03;;
4365;SDS011;2196;47.422;9.656;2024-03-02T02:52:37;10.83;;;9.13;;
4365;SDS011;2196;47.422;9.656;2024-03-02T02:55:06;23.57;;;11.87;;
4365;SDS011;2196;47.422;9.656;2024-03-02T02:57:35;11.20;;;10.03;;
4365;SDS011;2196;47.422;9.656;2024-03-02T03:00:08;11.83;;;9.70;;
4365;SDS011;2196;47.422;9.656;2024-03-02T03:02:39;10.97;;;9.83;;
4365;SDS011;2196;47.422;9.656;2024-03-02T03:05:07;11.13;;;10.03;;
4365;SDS011;2196;47.422;9.656;2024-03-02T03:07:37;12.40;;;9.70;;
4365;SDS011;2196;47.422;9.656;2024-03-02T03:10:05;10.13;;;8.83;;
4365;SDS011;2196;47.422;9.656;2024-03-02T03:12:37;11.20;;;9.93;;
4365;SDS011;2196;47.422;9.656;2024-03-02T03:15:06;10.13;;;9.13;;
4365;SDS011;2196;47.422;9.656;2024-03-02T03:17:35;9.90;;;8.90;;
4365;SDS011;2196;47.422;9.656;2024-03-02T03:20:03;10.50;;;8.83;;
4365;SDS011;2196;47.422;9.656;2024-03-02T03:22:34;8.63;;;7.83;;
4365;SDS011;2196;47.422;9.656;2024-03-02T03:25:01;9.37;;;8.37;;
4365;SDS011;2196;47.422;9.656;2024-03-02T03:27:29;9.17;;;8.27;;
4365;SDS011;2196;47.422;9.656;2024-03-02T03:30:02;10.57;;;7.93;;
4365;SDS011;2196;47.422;9.656;2024-03-02T03:32:31;9.53;;;8.57;;
4365;SDS011;2196;47.422;9.656;2024-03-02T03:35:02;9.93;;;8.83;;
4365;SDS011;2196;47.422;9.656;2024-03-02T03:37:29;7.90;;;7.13;;
4365;SDS011;2196;47.422;9.656;2024-03-02T03:40:00;8.90;;;7.77;;
4365;SDS011;2196;47.422;9.656;2024-03-02T03:42:32;8.87;;;7.83;;
4365;SDS011;2196;47.422;9.656;2024-03-02T03:44:59;9.17;;;8.00;;
4365;SDS011;2196;47.422;9.656;2024-03-02T03:47:27;11.73;;;8.43;;
4365;SDS011;2196;47.422;9.656;2024-03-02T03:49:54;9.73;;;8.60;;
4365;SDS011;2196;47.422;9.656;2024-03-02T03:52:21;9.47;;;8.57;;
4365;SDS011;2196;47.422;9.656;2024-03-02T03:54:49;9.83;;;8.80;;
4365;SDS011;2196;47.422;9.656;2024-03-02T03:57:16;10.30;;;8.93;;
4365;SDS011;2196;47.422;9.656;2024-03-02T03:59:43;8.93;;;8.03;;
4365;SDS011;2196;47.422;9.656;2024-03-02T04:02:11;8.77;;;7.87;;
4365;SDS011;2196;47.422;9.656;2024-03-02T04:04:40;10.43;;;9.30;;
4365;SDS011;2196;47.422;9.656;2024-03-02T04:07:08;12.17;;;8.87;;
4365;SDS011;2196;47.422;9.656;2024-03-02T04:09:36;10.30;;;9.20;;
4365;SDS011;2196;47.422;9.656;2024-03-02T04:12:03;9.13;;;8.27;;
4365;SDS011;2196;47.422;9.656;2024-03-02T04:14:31;10.87;;;9.80;;
4365;SDS011;2196;47.422;9.656;2024-03-02T04:16:58;10.60;;;9.50;;
4365;SDS011;2196;47.422;9.656;2024-03-02T04:19:25;11.03;;;9.50;;
4365;SDS011;2196;47.422;9.656;2024-03-02T04:21:54;10.10;;;9.07;;
4365;SDS011;2196;47.422;9.656;2024-03-02T04:24:21;10.33;;;9.27;;
4365;SDS011;2196;47.422;9.656;2024-03-02T04:26:48;9.70;;;8.70;;
4365;SDS011;2196;47.422;9.656;2024-03-02T04:29:15;10.40;;;9.30;;
4365;SDS011;2196;47.422;9.656;2024-03-02T04:31:42;11.03;;;8.80;;
4365;SDS011;2196;47.422;9.656;2024-03-02T04:34:10;9.40;;;8.43;;
4365;SDS011;2196;47.422;9.656;2024-03-02T04:36:37;9.23;;;8.23;;
4365;SDS011;2196;47.422;9.656;2024-03-02T04:39:05;9.27;;;8.33;;
4365;SDS011;2196;47.422;9.656;2024-03-02T04:41:34;13.27;;;8.73;;
4365;SDS011;2196;47.422;9.656;2024-03-02T04:44:02;10.57;;;9.57;;
4365;SDS011;2196;47.422;9.656;2024-03-02T04:46:29;9.33;;;8.40;;
4365;SDS011;2196;47.422;9.656;2024-03-02T04:48:56;11.03;;;8.93;;
4365;SDS011;2196;47.422;9.656;2024-03-02T04:51:23;13.03;;;10.80;;
4365;SDS011;2196;47.422;9.656;2024-03-02T04:53:51;11.63;;;10.33;;
4365;SDS011;2196;47.422;9.656;2024-03-02T04:56:19;12.57;;;9.73;;
4365;SDS011;2196;47.422;9.656;2024-03-02T04:59:05;15.17;;;11.00;;
4365;SDS011;2196;47.422;9.656;2024-03-02T05:01:32;12.90;;;11.23;;
4365;SDS011;2196;47.422;9.656;2024-03-02T05:03:59;14.07;;;11.17;;
4365;SDS011;2196;47.422;9.656;2024-03-02T05:06:26;15.67;;;10.87;;
4365;SDS011;2196;47.422;9.656;2024-03-02T05:08:55;13.10;;;11.43;;
4365;SDS011;2196;47.422;9.656;2024-03-02T05:11:23;12.07;;;10.43;;
4365;SDS011;2196;47.422;9.656;2024-03-02T05:14:08;16.67;;;11.77;;
4365;SDS011;2196;47.422;9.656;2024-03-02T05:16:35;13.47;;;10.00;;
4365;SDS011;2196;47.422;9.656;2024-03-02T05:19:04;15.10;;;11.87;;
4365;SDS011;2196;47.422;9.656;2024-03-02T05:21:32;13.97;;;10.87;;
4365;SDS011;2196;47.422;9.656;2024-03-02T05:23:58;13.47;;;10.90;;
4365;SDS011;2196;47.422;9.656;2024-03-02T05:26:27;13.93;;;10.63;;
4365;SDS011;2196;47.422;9.656;2024-03-02T05:28:54;15.07;;;10.53;;
4365;SDS011;2196;47.422;9.656;2024-03-02T05:31:20;14.93;;;10.87;;
4365;SDS011;2196;47.422;9.656;2024-03-02T05:33:47;12.43;;;10.97;;
4365;SDS011;2196;47.422;9.656;2024-03-02T05:36:15;13.90;;;10.80;;
4365;SDS011;2196;47.422;9.656;2024-03-02T05:38:42;12.93;;;11.10;;
4365;SDS011;2196;47.422;9.656;2024-03-02T05:41:09;13.20;;;10.43;;
4365;SDS011;2196;47.422;9.656;2024-03-02T05:43:38;14.47;;;11.40;;
4365;SDS011;2196;47.422;9.656;2024-03-02T05:46:05;15.90;;;13.43;;
4365;SDS011;2196;47.422;9.656;2024-03-02T05:48:32;16.10;;;13.27;;
4365;SDS011;2196;47.422;9.656;2024-03-02T05:51:00;19.77;;;12.90;;
4365;SDS011;2196;47.422;9.656;2024-03-02T05:53:27;18.80;;;13.37;;
4365;SDS011;2196;47.422;9.656;2024-03-02T05:55:54;17.33;;;13.60;;
4365;SDS011;2196;47.422;9.656;2024-03-02T05:58:21;20.20;;;13.87;;
4365;SDS011;2196;47.422;9.656;2024-03-02T06:01:03;18.27;;;14.40;;
4365;SDS011;2196;47.422;9.656;2024-03-02T06:03:31;16.20;;;13.00;;
4365;SDS011;2196;47.422;9.656;2024-03-02T06:05:58;12.33;;;10.73;;
4365;SDS011;2196;47.422;9.656;2024-03-02T06:08:25;15.10;;;11.43;;
4365;SDS011;2196;47.422;9.656;2024-03-02T06:10:53;16.93;;;12.23;;
4365;SDS011;2196;47.422;9.656;2024-03-02T06:13:21;12.73;;;10.40;;
4365;SDS011;2196;47.422;9.656;2024-03-02T06:15:48;16.63;;;11.43;;
4365;SDS011;2196;47.422;9.656;2024-03-02T06:18:17;18.13;;;12.33;;
4365;SDS011;2196;47.422;9.656;2024-03-02T06:20:45;15.57;;;11.83;;
4365;SDS011;2196;47.422;9.656;2024-03-02T06:23:13;12.67;;;10.83;;
4365;SDS011;2196;47.422;9.656;2024-03-02T06:25:40;15.43;;;11.53;;
4365;SDS011;2196;47.422;9.656;2024-03-02T06:28:07;17.27;;;11.87;;
4365;SDS011;2196;47.422;9.656;2024-03-02T06:30:33;13.23;;;11.17;;
4365;SDS011;2196;47.422;9.656;2024-03-02T06:33:00;13.63;;;11.03;;
4365;SDS011;2196;47.422;9.656;2024-03-02T06:35:30;13.10;;;10.73;;
4365;SDS011;2196;47.422;9.656;2024-03-02T06:37:57;12.83;;;10.57;;
4365;SDS011;2196;47.422;9.656;2024-03-02T06:40:25;14.40;;;11.20;;
4365;SDS011;2196;47.422;9.656;2024-03-02T06:42:52;10.70;;;8.83;;
4365;SDS011;2196;47.422;9.656;2024-03-02T06:45:19;9.20;;;7.97;;
4365;SDS011;2196;47.422;9.656;2024-03-02T06:47:47;9.93;;;8.90;;
4365;SDS011;2196;47.422;9.656;2024-03-02T06:50:15;11.97;;;9.70;;
4365;SDS011;2196;47.422;9.656;2024-03-02T06:52:43;12.63;;;11.03;;
4365;SDS011;2196;47.422;9.656;2024-03-02T06:55:11;12.63;;;9.73;;
4365;SDS011;2196;47.422;9.656;2024-03-02T06:57:38;12.57;;;11.27;;
4365;SDS011;2196;47.422;9.656;2024-03-02T07:00:05;15.10;;;12.33;;
4365;SDS011;2196;47.422;9.656;2024-03-02T07:02:36;12.50;;;11.13;;
4365;SDS011;2196;47.422;9.656;2024-03-02T07:05:03;13.30;;;11.17;;
4365;SDS011;2196;47.422;9.656;2024-03-02T07:07:32;11.93;;;10.67;;
4365;SDS011;2196;47.422;9.656;2024-03-02T07:10:01;16.80;;;10.37;;
4365;SDS011;2196;47.422;9.656;2024-03-02T07:12:28;11.97;;;9.97;;
4365;SDS011;2196;47.422;9.656;2024-03-02T07:14:56;11.73;;;10.13;;
4365;SDS011;2196;47.422;9.656;2024-03-02T07:17:44;11.97;;;9.70;;
4365;SDS011;2196;47.422;9.656;2024-03-02T07:20:11;12.53;;;10.87;;
4365;SDS011;2196;47.422;9.656;2024-03-02T07:22:38;16.10;;;11.47;;
4365;SDS011;2196;47.422;9.656;2024-03-02T07:25:07;13.60;;;11.10;;
4365;SDS011;2196;47.422;9.656;2024-03-02T07:27:35;12.40;;;10.80;;
4365;SDS011;2196;47.422;9.656;2024-03-02T07:30:06;12.00;;;10.43;;
4365;SDS011;2196;47.422;9.656;2024-03-02T07:32:34;12.13;;;9.87;;
4365;SDS011;2196;47.422;9.656;2024-03-02T07:35:06;11.37;;;9.20;;
4365;SDS011;2196;47.422;9.656;2024-03-02T07:37:34;10.37;;;9.27;;
4365;SDS011;2196;47.422;9.656;2024-03-02T07:40:05;14.30;;;10.77;;
4365;SDS011;2196;47.422;9.656;2024-03-02T07:42:37;9.93;;;8.93;;
4365;SDS011;2196;47.422;9.656;2024-03-02T07:45:05;13.03;;;10.60;;
4365;SDS011;2196;47.422;9.656;2024-03-02T07:47:33;10.57;;;9.37;;
4365;SDS011;2196;47.422;9.656;2024-03-02T07:50:04;14.07;;;10.30;;
4365;SDS011;2196;47.422;9.656;2024-03-02T07:52:32;11.13;;;9.93;;
4365;SDS011;2196;47.422;9.656;2024-03-02T07:54:59;9.83;;;7.63;;
4365;SDS011;2196;47.422;9.656;2024-03-02T07:57:26;9.50;;;7.77;;
4365;SDS011;2196;47.422;9.656;2024-03-02T07:59:55;7.90;;;7.10;;
4365;SDS011;2196;47.422;9.656;2024-03-02T08:02:24;7.20;;;6.43;;
4365;SDS011;2196;47.422;9.656;2024-03-02T08:04:51;10.20;;;7.33;;
4365;SDS011;2196;47.422;9.656;2024-03-02T08:07:19;9.07;;;8.00;;
4365;SDS011;2196;47.422;9.656;2024-03-02T08:09:46;10.37;;;7.87;;
4365;SDS011;2196;47.422;9.656;2024-03-02T08:12:13;9.30;;;7.53;;
4365;SDS011;2196;47.422;9.656;2024-03-02T08:14:41;8.40;;;7.47;;
4365;SDS011;2196;47.422;9.656;2024-03-02T08:17:09;8.57;;;7.20;;
4365;SDS011;2196;47.422;9.656;2024-03-02T08:19:37;8.00;;;7.30;;
4365;SDS011;2196;47.422;9.656;2024-03-02T08:22:04;9.23;;;8.33;;
4365;SDS011;2196;47.422;9.656;2024-03-02T08:24:32;8.47;;;7.57;;
4365;SDS011;2196;47.422;9.656;2024-03-02T08:26:59;11.03;;;8.70;;
4365;SDS011;2196;47.422;9.656;2024-03-02T08:29:26;13.27;;;9.10;;
4365;SDS011;2196;47.422;9.656;2024-03-02T08:31:54;9.63;;;8.57;;
4365;SDS011;2196;47.422;9.656;2024-03-02T08:34:22;10.77;;;8.33;;
4365;SDS011;2196;47.422;9.656;2024-03-02T08:36:50;8.07;;;7.20;;
4365;SDS011;2196;47.422;9.656;2024-03-02T08:39:17;7.77;;;6.97;;
4365;SDS011;2196;47.422;9.656;2024-03-02T08:41:45;8.07;;;7.20;;
4365;SDS011;2196;47.422;9.656;2024-03-02T08:44:13;9.20;;;7.40;;
4365;SDS011;2196;47.422;9.656;2024-03-02T08:46:40;7.93;;;7.17;;
4365;SDS011;2196;47.422;9.656;2024-03-02T08:49:08;8.50;;;7.13;;
4365;SDS011;2196;47.422;9.656;2024-03-02T08:51:36;6.43;;;5.93;;
4365;SDS011;2196;47.422;9.656;2024-03-02T08:54:04;6.60;;;5.67;;
4365;SDS011;2196;47.422;9.656;2024-03-02T08:56:31;6.03;;;5.43;;
4365;SDS011;2196;47.422;9.656;2024-03-02T08:58:58;7.17;;;6.17;;
4365;SDS011;2196;47.422;9.656;2024-03-02T09:01:26;8.10;;;6.20;;
4365;SDS011;2196;47.422;9.656;2024-03-02T09:03:53;5.63;;;5.10;;
4365;SDS011;2196;47.422;9.656;2024-03-02T09:06:20;5.43;;;5.03;;
4365;SDS011;2196;47.422;9.656;2024-03-02T09:08:49;5.67;;;5.27;;
4365;SDS011;2196;47.422;9.656;2024-03-02T09:11:17;9.00;;;5.80;;
4365;SDS011;2196;47.422;9.656;2024-03-02T09:13:44;4.87;;;4.47;;
4365;SDS011;2196;47.422;9.656;2024-03-02T09:16:11;4.23;;;3.93;;
4365;SDS011;2196;47.422;9.656;2024-03-02T09:18:39;4.00;;;3.07;;
4365;SDS011;2196;47.422;9.656;2024-03-02T09:21:06;3.60;;;3.33;;
4365;SDS011;2196;47.422;9.656;2024-03-02T09:23:34;3.80;;;3.50;;
4365;SDS011;2196;47.422;9.656;2024-03-02T09:26:02;3.83;;;3.63;;
4365;SDS011;2196;47.422;9.656;2024-03-02T09:28:30;4.23;;;3.87;;
4365;SDS011;2196;47.422;9.656;2024-03-02T09:30:57;4.20;;;3.97;;
4365;SDS011;2196;47.422;9.656;2024-03-02T09:33:24;3.87;;;3.67;;
4365;SDS011;2196;47.422;9.656;2024-03-02T09:35:51;5.60;;;5.20;;
4365;SDS011;2196;47.422;9.656;2024-03-02T09:38:18;5.50;;;5.03;;
4365;SDS011;2196;47.422;9.656;2024-03-02T09:40:46;5.13;;;3.90;;
4365;SDS011;2196;47.422;9.656;2024-03-02T09:43:14;5.83;;;4.47;;
4365;SDS011;2196;47.422;9.656;2024-03-02T09:45:42;3.80;;;3.60;;
4365;SDS011;2196;47.422;9.656;2024-03-02T09:48:09;3.23;;;3.03;;
4365;SDS011;2196;47.422;9.656;2024-03-02T09:50:36;3.37;;;3.07;;
4365;SDS011;2196;47.422;9.656;2024-03-02T09:53:03;3.13;;;2.93;;
4365;SDS011;2196;47.422;9.656;2024-03-02T09:55:31;2.90;;;2.70;;
4365;SDS011;2196;47.422;9.656;2024-03-02T09:57:58;2.37;;;2.27;;
4365;SDS011;2196;47.422;9.656;2024-03-02T10:00:27;2.40;;;2.00;;
4365;SDS011;2196;47.422;9.656;2024-03-02T10:02:54;2.43;;;2.23;;
4365;SDS011;2196;47.422;9.656;2024-03-02T10:05:24;2.97;;;2.77;;
4365;SDS011;2196;47.422;9.656;2024-03-02T10:07:58;2.33;;;2.23;;
4365;SDS011;2196;47.422;9.656;2024-03-02T10:10:26;2.40;;;2.30;;
4365;SDS011;2196;47.422;9.656;2024-03-02T10:13:03;3.13;;;2.70;;
4365;SDS011;2196;47.422;9.656;2024-03-02T10:15:32;2.17;;;2.07;;
4365;SDS011;2196;47.422;9.656;2024-03-02T10:18:00;2.00;;;2.00;;
4365;SDS011;2196;47.422;9.656;2024-03-02T10:20:27;2.07;;;1.97;;
4365;SDS011;2196;47.422;9.656;2024-03-02T10:22:55;1.67;;;1.57;;
4365;SDS011;2196;47.422;9.656;2024-03-02T10:25:28;1.30;;;1.30;;
4365;SDS011;2196;47.422;9.656;2024-03-02T10:27:57;1.77;;;1.67;;
4365;SDS011;2196;47.422;9.656;2024-03-02T10:30:25;1.37;;;1.27;;
4365;SDS011;2196;47.422;9.656;2024-03-02T10:32:54;2.73;;;1.20;;
4365;SDS011;2196;47.422;9.656;2024-03-02T10:35:21;2.20;;;2.00;;
4365;SDS011;2196;47.422;9.656;2024-03-02T10:37:50;3.03;;;1.37;;
4365;SDS011;2196;47.422;9.656;2024-03-02T10:40:18;1.73;;;1.70;;
4365;SDS011;2196;47.422;9.656;2024-03-02T10:42:45;1.57;;;1.47;;
4365;SDS011;2196;47.422;9.656;2024-03-02T10:45:12;2.00;;;1.90;;
4365;SDS011;2196;47.422;9.656;2024-03-02T10:47:42;2.00;;;1.53;;
4365;SDS011;2196;47.422;9.656;2024-03-02T10:50:11;1.80;;;1.80;;
4365;SDS011;2196;47.422;9.656;2024-03-02T10:52:40;1.80;;;1.70;;
4365;SDS011;2196;47.422;9.656;2024-03-02T10:55:08;1.93;;;1.83;;
4365;SDS011;2196;47.422;9.656;2024-03-02T10:57:40;1.50;;;1.40;;
4365;SDS011;2196;47.422;9.656;2024-03-02T11:00:08;1.30;;;1.30;;
4365;SDS011;2196;47.422;9.656;2024-03-02T11:02:40;2.70;;;1.37;;
4365;SDS011;2196;47.422;9.656;2024-03-02T11:05:10;1.70;;;1.60;;
4365;SDS011;2196;47.422;9.656;2024-03-02T11:07:40;6.30;;;1.20;;
4365;SDS011;2196;47.422;9.656;2024-03-02T11:10:08;1.33;;;1.23;;
4365;SDS011;2196;47.422;9.656;2024-03-02T11:12:38;3.40;;;1.63;;
4365;SDS011;2196;47.422;9.656;2024-03-02T11:15:08;1.17;;;1.10;;
4365;SDS011;2196;47.422;9.656;2024-03-02T11:17:37;1.47;;;1.03;;
4365;SDS011;2196;47.422;9.656;2024-03-02T11:20:09;1.90;;;0.97;;
4365;SDS011;2196;47.422;9.656;2024-03-02T11:22:37;0.90;;;0.90;;
4365;SDS011;2196;47.422;9.656;2024-03-02T11:25:05;1.63;;;1.17;;
4365;SDS011;2196;47.422;9.656;2024-03-02T11:33:03;0.90;;;0.90;;
4365;SDS011;2196;47.422;9.656;2024-03-02T11:35:33;2.40;;;1.40;;
4365;SDS011;2196;47.422;9.656;2024-03-02T11:38:01;1.00;;;0.90;;
4365;SDS011;2196;47.422;9.656;2024-03-02T11:40:29;0.70;;;0.70;;
4365;SDS011;2196;47.422;9.656;2024-03-02T11:42:57;0.60;;;0.60;;
4365;SDS011;2196;47.422;9.656;2024-03-02T11:45:26;0.87;;;0.87;;
4365;SDS011;2196;47.422;9.656;2024-03-02T11:47:54;0.97;;;0.97;;
4365;SDS011;2196;47.422;9.656;2024-03-02T11:50:28;1.57;;;0.67;;
4365;SDS011;2196;47.422;9.656;2024-03-02T11:52:56;0.60;;;0.60;;
4365;SDS011;2196;47.422;9.656;2024-03-02T11:55:24;0.37;;;0.30;;
4365;SDS011;2196;47.422;9.656;2024-03-02T11:57:52;2.37;;;0.40;;
4365;SDS011;2196;47.422;9.656;2024-03-02T12:00:20;0.30;;;0.30;;
4365;SDS011;2196;47.422;9.656;2024-03-02T12:02:47;0.80;;;0.40;;
4365;SDS011;2196;47.422;9.656;2024-03-02T12:05:26;0.60;;;0.60;;
4365;SDS011;2196;47.422;9.656;2024-03-02T12:07:55;0.60;;;0.60;;
4365;SDS011;2196;47.422;9.656;2024-03-02T12:10:25;0.50;;;0.50;;
4365;SDS011;2196;47.422;9.656;2024-03-02T12:12:56;0.57;;;0.57;;
4365;SDS011;2196;47.422;9.656;2024-03-02T12:15:25;0.53;;;0.53;;
4365;SDS011;2196;47.422;9.656;2024-03-02T12:17:53;1.23;;;0.63;;
4365;SDS011;2196;47.422;9.656;2024-03-02T12:20:21;2.60;;;1.97;;
4365;SDS011;2196;47.422;9.656;2024-03-02T12:22:50;0.70;;;0.70;;
4365;SDS011;2196;47.422;9.656;2024-03-02T12:25:18;0.70;;;0.60;;
4365;SDS011;2196;47.422;9.656;2024-03-02T12:27:48;2.43;;;0.60;;
4365;SDS011;2196;47.422;9.656;2024-03-02T12:30:16;0.60;;;0.60;;
4365;SDS011;2196;47.422;9.656;2024-03-02T12:32:43;0.97;;;0.50;;
4365;SDS011;2196;47.422;9.656;2024-03-02T12:35:11;0.60;;;0.50;;
4365;SDS011;2196;47.422;9.656;2024-03-02T12:37:44;1.47;;;0.97;;
4365;SDS011;2196;47.422;9.656;2024-03-02T12:40:11;0.87;;;0.87;;
4365;SDS011;2196;47.422;9.656;2024-03-02T12:42:38;0.90;;;0.90;;
4365;SDS011;2196;47.422;9.656;2024-03-02T12:45:11;0.83;;;0.60;;
4365;SDS011;2196;47.422;9.656;2024-03-02T12:47:39;0.60;;;0.60;;
4365;SDS011;2196;47.422;9.656;2024-03-02T12:50:07;1.77;;;1.67;;
4365;SDS011;2196;47.422;9.656;2024-03-02T12:52:34;3.40;;;3.17;;
4365;SDS011;2196;47.422;9.656;2024-03-02T12:55:02;4.20;;;3.80;;
4365;SDS011;2196;47.422;9.656;2024-03-02T12:57:30;4.57;;;4.17;;
4365;SDS011;2196;47.422;9.656;2024-03-02T13:00:02;2.87;;;2.77;;
4365;SDS011;2196;47.422;9.656;2024-03-02T13:02:39;1.47;;;1.37;;
4365;SDS011;2196;47.422;9.656;2024-03-02T13:05:07;2.80;;;1.30;;
4365;SDS011;2196;47.422;9.656;2024-03-02T13:07:40;1.60;;;1.50;;
4365;SDS011;2196;47.422;9.656;2024-03-02T13:10:07;1.97;;;1.87;;
4365;SDS011;2196;47.422;9.656;2024-03-02T13:12:37;2.37;;;2.07;;
4365;SDS011;2196;47.422;9.656;2024-03-02T13:15:04;2.00;;;1.90;;
4365;SDS011;2196;47.422;9.656;2024-03-02T13:17:35;3.10;;;2.80;;
4365;SDS011;2196;47.422;9.656;2024-03-02T13:20:07;2.23;;;2.13;;
4365;SDS011;2196;47.422;9.656;2024-03-02T13:22:35;3.03;;;2.30;;
4365;SDS011;2196;47.422;9.656;2024-03-02T13:25:03;2.63;;;1.93;;
4365;SDS011;2196;47.422;9.656;2024-03-02T13:27:31;1.77;;;1.00;;
4365;SDS011;2196;47.422;9.656;2024-03-02T13:29:58;2.10;;;1.10;;
4365;SDS011;2196;47.422;9.656;2024-03-02T13:32:26;0.90;;;0.90;;
4365;SDS011;2196;47.422;9.656;2024-03-02T13:34:55;1.40;;;1.40;;
4365;SDS011;2196;47.422;9.656;2024-03-02T13:37:23;1.80;;;1.70;;
4365;SDS011;2196;47.422;9.656;2024-03-02T13:39:53;1.77;;;1.67;;
4365;SDS011;2196;47.422;9.656;2024-03-02T13:42:21;3.17;;;2.93;;
4365;SDS011;2196;47.422;9.656;2024-03-02T13:44:49;2.97;;;2.77;;
4365;SDS011;2196;47.422;9.656;2024-03-02T13:47:17;3.10;;;2.87;;
4365;SDS011;2196;47.422;9.656;2024-03-02T13:49:46;5.67;;;5.07;;
4365;SDS011;2196;47.422;9.656;2024-03-02T13:52:18;9.13;;;8.23;;
4365;SDS011;2196;47.422;9.656;2024-03-02T13:54:46;2.30;;;2.10;;
4365;SDS011;2196;47.422;9.656;2024-03-02T13:57:14;1.27;;;1.27;;
4365;SDS011;2196;47.422;9.656;2024-03-02T13:59:45;0.80;;;0.80;;
4365;SDS011;2196;47.422;9.656;2024-03-02T14:02:13;3.60;;;3.30;;
4365;SDS011;2196;47.422;9.656;2024-03-02T14:04:40;6.57;;;5.50;;
4365;SDS011;2196;47.422;9.656;2024-03-02T14:07:08;1.40;;;1.30;;
4365;SDS011;2196;47.422;9.656;2024-03-02T14:09:38;1.50;;;0.97;;
4365;SDS011;2196;47.422;9.656;2024-03-02T14:12:06;2.03;;;1.93;;
4365;SDS011;2196;47.422;9.656;2024-03-02T14:14:34;0.97;;;0.97;;
4365;SDS011;2196;47.422;9.656;2024-03-02T14:17:02;1.07;;;1.07;;
4365;SDS011;2196;47.422;9.656;2024-03-02T14:19:31;0.83;;;0.83;;
4365;SDS011;2196;47.422;9.656;2024-03-02T14:21:59;1.50;;;0.87;;
4365;SDS011;2196;47.422;9.656;2024-03-02T14:24:27;1.27;;;1.23;;
4365;SDS011;2196;47.422;9.656;2024-03-02T14:26:56;1.63;;;1.53;;
4365;SDS011;2196;47.422;9.656;2024-03-02T14:29:27;1.93;;;1.83;;
4365;SDS011;2196;47.422;9.656;2024-03-02T14:31:54;1.90;;;0.97;;
4365;SDS011;2196;47.422;9.656;2024-03-02T14:34:22;2.03;;;1.60;;
4365;SDS011;2196;47.422;9.656;2024-03-02T14:36:49;2.60;;;1.40;;
4365;SDS011;2196;47.422;9.656;2024-03-02T14:39:17;3.97;;;3.40;;
4365;SDS011;2196;47.422;9.656;2024-03-02T14:41:44;7.47;;;4.60;;
4365;SDS011;2196;47.422;9.656;2024-03-02T14:44:13;2.63;;;2.43;;
4365;SDS011;2196;47.422;9.656;2024-03-02T14:46:42;2.20;;;2.00;;
4365;SDS011;2196;47.422;9.656;2024-03-02T14:49:10;3.77;;;3.13;;
4365;SDS011;2196;47.422;9.656;2024-03-02T14:51:37;1.33;;;1.33;;
4365;SDS011;2196;47.422;9.656;2024-03-02T14:54:04;1.80;;;1.70;;
4365;SDS011;2196;47.422;9.656;2024-03-02T14:56:32;1.90;;;1.80;;
4365;SDS011;2196;47.422;9.656;2024-03-02T14:58:59;3.47;;;3.17;;
4365;SDS011;2196;47.422;9.656;2024-03-02T15:01:27;3.90;;;3.17;;
4365;SDS011;2196;47.422;9.656;2024-03-02T15:03:55;2.53;;;1.67;;
4365;SDS011;2196;47.422;9.656;2024-03-02T15:06:22;4.50;;;2.03;;
4365;SDS011;2196;47.422;9.656;2024-03-02T15:08:49;2.20;;;1.57;;
4365;SDS011;2196;47.422;9.656;2024-03-02T15:11:16;1.97;;;1.80;;
4365;SDS011;2196;47.422;9.656;2024-03-02T15:13:44;1.47;;;1.47;;
4365;SDS011;2196;47.422;9.656;2024-03-02T15:16:11;2.03;;;1.90;;
4365;SDS011;2196;47.422;9.656;2024-03-02T15:18:40;2.03;;;1.83;;